sensor_id;sensor_type;location;lat;lon;timestamp;pressure;altitude;pressure_sealevel;temperature;humidity
51229;BME280;37304;52.216;6.874;2023-02-23T00:03:03;100984.84;;;7.69;100.00
51229;BME280;37304;52.216;6.874;2023-02-23T00:08:04;100992.59;;;7.73;100.00
51229;BME280;37304;52.216;6.874;2023-02-23T00:13:04;100990.88;;;7.77;100.00
51229;BME280;37304;52.216;6.874;2023-02-23T00:18:05;100987.41;;;7.78;100.00
51229;BME280;37304;52.216;6.874;2023-02-23T00:23:05;100981.41;;;7.73;100.00
51229;BME280;37304;52.216;6.874;2023-02-23T00:28:06;100978.81;;;7.73;100.00
51229;BME280;37304;52.216;6.874;2023-02-23T00:33:06;100976.22;;;7.71;100.00
51229;BME280;37304;52.216;6.874;2023-02-23T00:38:07;100971.91;;;7.72;100.00
51229;BME280;37304;52.216;6.874;2023-02-23T00:43:07;100978.81;;;7.70;100.00
51229;BME280;37304;52.216;6.874;2023-02-23T00:48:08;100969.34;;;7.63;100.00
51229;BME280;37304;52.216;6.874;2023-02-23T00:53:15;100977.13;;;7.58;100.00
51229;BME280;37304;52.216;6.874;2023-02-23T00:58:16;100981.41;;;7.57;100.00
51229;BME280;37304;52.216;6.874;2023-02-23T01:03:16;100980.56;;;7.49;100.00
51229;BME280;37304;52.216;6.874;2023-02-23T01:08:17;100982.28;;;7.50;100.00
51229;BME280;37304;52.216;6.874;2023-02-23T01:13:18;100983.16;;;7.43;100.00
51229;BME280;37304;52.216;6.874;2023-02-23T01:18:20;100978.88;;;7.36;100.00
51229;BME280;37304;52.216;6.874;2023-02-23T01:23:20;100989.22;;;7.36;100.00
51229;BME280;37304;52.216;6.874;2023-02-23T01:28:21;100991.78;;;7.36;100.00
51229;BME280;37304;52.216;6.874;2023-02-23T01:33:22;100990.97;;;7.32;100.00
51229;BME280;37304;52.216;6.874;2023-02-23T01:38:22;100994.38;;;7.25;100.00
51229;BME280;37304;52.216;6.874;2023-02-23T01:43:23;100995.25;;;7.25;100.00
51229;BME280;37304;52.216;6.874;2023-02-23T01:48:29;100998.69;;;7.31;100.00
51229;BME280;37304;52.216;6.874;2023-02-23T01:53:36;100994.38;;;7.33;100.00
51229;BME280;37304;52.216;6.874;2023-02-23T01:58:41;100991.78;;;7.33;100.00
51229;BME280;37304;52.216;6.874;2023-02-23T02:03:47;100993.53;;;7.34;100.00
51229;BME280;37304;52.216;6.874;2023-02-23T02:08:51;100988.38;;;7.35;100.00
51229;BME280;37304;52.216;6.874;2023-02-23T02:13:57;100990.09;;;7.33;100.00
51229;BME280;37304;52.216;6.874;2023-02-23T02:19:05;100984.03;;;7.29;100.00
51229;BME280;37304;52.216;6.874;2023-02-23T02:24:41;100990.06;;;7.35;100.00
51229;BME280;37304;52.216;6.874;2023-02-23T02:35:34;100983.19;;;7.29;100.00
51229;BME280;37304;52.216;6.874;2023-02-23T02:45:51;100980.59;;;7.27;100.00
51229;BME280;37304;52.216;6.874;2023-02-23T02:50:59;100978.00;;;7.31;100.00
51229;BME280;37304;52.216;6.874;2023-02-23T02:56:05;100969.41;;;7.30;100.00
51229;BME280;37304;52.216;6.874;2023-02-23T03:01:12;100974.56;;;7.32;100.00
51229;BME280;37304;52.216;6.874;2023-02-23T03:18:40;100968.53;;;7.26;100.00
51229;BME280;37304;52.216;6.874;2023-02-23T03:29:54;100971.13;;;7.23;100.00
51229;BME280;37304;52.216;6.874;2023-02-23T03:41:00;100978.88;;;7.25;100.00
51229;BME280;37304;52.216;6.874;2023-02-23T03:46:23;100970.28;;;7.21;100.00
51229;BME280;37304;52.216;6.874;2023-02-23T03:51:48;100979.75;;;7.19;100.00
51229;BME280;37304;52.216;6.874;2023-02-23T03:57:09;100976.28;;;7.26;100.00
51229;BME280;37304;52.216;6.874;2023-02-23T04:02:33;100979.75;;;7.25;100.00
51229;BME280;37304;52.216;6.874;2023-02-23T04:07:53;100989.22;;;7.25;100.00
51229;BME280;37304;52.216;6.874;2023-02-23T04:13:17;100987.50;;;7.30;100.00
51229;BME280;37304;52.216;6.874;2023-02-23T04:18:27;100992.66;;;7.22;100.00
51229;BME280;37304;52.216;6.874;2023-02-23T04:23:28;100987.50;;;7.25;100.00
51229;BME280;37304;52.216;6.874;2023-02-23T04:28:29;100994.38;;;7.19;100.00
51229;BME280;37304;52.216;6.874;2023-02-23T04:33:29;100993.50;;;7.23;100.00
51229;BME280;37304;52.216;6.874;2023-02-23T04:38:30;101008.19;;;7.19;100.00
51229;BME280;37304;52.216;6.874;2023-02-23T04:43:30;101008.19;;;7.16;100.00
51229;BME280;37304;52.216;6.874;2023-02-23T04:48:31;101015.91;;;7.14;100.00
51229;BME280;37304;52.216;6.874;2023-02-23T04:53:31;101013.34;;;7.22;100.00
51229;BME280;37304;52.216;6.874;2023-02-23T04:58:32;101009.91;;;7.17;100.00
51229;BME280;37304;52.216;6.874;2023-02-23T05:03:32;101015.91;;;7.21;100.00
51229;BME280;37304;52.216;6.874;2023-02-23T05:08:32;101018.50;;;7.14;100.00
51229;BME280;37304;52.216;6.874;2023-02-23T05:13:33;101019.38;;;7.20;100.00
51229;BME280;37304;52.216;6.874;2023-02-23T05:18:33;101020.25;;;7.14;100.00
51229;BME280;37304;52.216;6.874;2023-02-23T05:23:34;101021.09;;;7.16;100.00
51229;BME280;37304;52.216;6.874;2023-02-23T05:28:37;101020.25;;;7.14;100.00
51229;BME280;37304;52.216;6.874;2023-02-23T05:33:38;101015.91;;;7.11;100.00
51229;BME280;37304;52.216;6.874;2023-02-23T05:38:42;101024.53;;;7.13;100.00
51229;BME280;37304;52.216;6.874;2023-02-23T05:43:42;101024.56;;;7.12;100.00
51229;BME280;37304;52.216;6.874;2023-02-23T05:48:43;101024.53;;;7.10;100.00
51229;BME280;37304;52.216;6.874;2023-02-23T05:53:44;101033.16;;;7.11;100.00
51229;BME280;37304;52.216;6.874;2023-02-23T05:58:49;101027.97;;;6.97;100.00
51229;BME280;37304;52.216;6.874;2023-02-23T06:03:50;101039.19;;;6.99;100.00
51229;BME280;37304;52.216;6.874;2023-02-23T06:08:51;101054.69;;;7.01;100.00
51229;BME280;37304;52.216;6.874;2023-02-23T06:13:51;101054.69;;;7.01;100.00
51229;BME280;37304;52.216;6.874;2023-02-23T06:18:52;101059.84;;;6.90;100.00
51229;BME280;37304;52.216;6.874;2023-02-23T06:23:52;101058.09;;;6.87;100.00
51229;BME280;37304;52.216;6.874;2023-02-23T06:28:53;101061.53;;;6.92;100.00
51229;BME280;37304;52.216;6.874;2023-02-23T06:33:53;101065.84;;;6.84;100.00
51229;BME280;37304;52.216;6.874;2023-02-23T06:38:57;101071.84;;;6.80;100.00
51229;BME280;37304;52.216;6.874;2023-02-23T06:43:58;101077.00;;;6.74;100.00
51229;BME280;37304;52.216;6.874;2023-02-23T06:48:58;101072.72;;;6.71;100.00
51229;BME280;37304;52.216;6.874;2023-02-23T06:53:59;101081.28;;;6.68;100.00
51229;BME280;37304;52.216;6.874;2023-02-23T06:58:59;101089.91;;;6.64;100.00
51229;BME280;37304;52.216;6.874;2023-02-23T07:03:59;101100.22;;;6.63;100.00
51229;BME280;37304;52.216;6.874;2023-02-23T07:09:00;101099.34;;;6.61;100.00
51229;BME280;37304;52.216;6.874;2023-02-23T07:14:01;101107.13;;;6.65;100.00
51229;BME280;37304;52.216;6.874;2023-02-23T07:19:02;101117.47;;;6.67;100.00
51229;BME280;37304;52.216;6.874;2023-02-23T07:24:02;101132.09;;;6.73;100.00
51229;BME280;37304;52.216;6.874;2023-02-23T07:29:05;101132.94;;;6.62;100.00
51229;BME280;37304;52.216;6.874;2023-02-23T07:34:06;101142.34;;;6.52;100.00
51229;BME280;37304;52.216;6.874;2023-02-23T07:39:07;101144.94;;;6.55;100.00
51229;BME280;37304;52.216;6.874;2023-02-23T07:44:07;101149.22;;;6.53;100.00
51229;BME280;37304;52.216;6.874;2023-02-23T07:49:07;101160.44;;;6.54;100.00
51229;BME280;37304;52.216;6.874;2023-02-23T07:54:08;101155.25;;;6.52;100.00
51229;BME280;37304;52.216;6.874;2023-02-23T07:59:08;101156.13;;;6.58;100.00
51229;BME280;37304;52.216;6.874;2023-02-23T08:04:09;101163.00;;;6.55;100.00
51229;BME280;37304;52.216;6.874;2023-02-23T08:09:10;101165.63;;;6.57;100.00
51229;BME280;37304;52.216;6.874;2023-02-23T08:14:11;101171.66;;;6.59;100.00
51229;BME280;37304;52.216;6.874;2023-02-23T08:19:12;101168.19;;;6.55;100.00
51229;BME280;37304;52.216;6.874;2023-02-23T08:24:12;101166.50;;;6.62;100.00
51229;BME280;37304;52.216;6.874;2023-02-23T08:29:13;101176.00;;;6.66;100.00
51229;BME280;37304;52.216;6.874;2023-02-23T08:34:13;101176.84;;;6.65;100.00
51229;BME280;37304;52.216;6.874;2023-02-23T08:39:14;101188.06;;;6.70;100.00
51229;BME280;37304;52.216;6.874;2023-02-23T08:44:15;101181.16;;;6.65;100.00
51229;BME280;37304;52.216;6.874;2023-02-23T08:49:15;101181.09;;;6.59;100.00
51229;BME280;37304;52.216;6.874;2023-02-23T08:54:16;101189.75;;;6.65;100.00
51229;BME280;37304;52.216;6.874;2023-02-23T08:59:16;101191.50;;;6.69;100.00
51229;BME280;37304;52.216;6.874;2023-02-23T09:04:17;101194.97;;;6.73;100.00
51229;BME280;37304;52.216;6.874;2023-02-23T09:09:17;101202.72;;;6.70;100.00
51229;BME280;37304;52.216;6.874;2023-02-23T09:14:23;101198.41;;;6.74;100.00
51229;BME280;37304;52.216;6.874;2023-02-23T09:19:24;101207.06;;;6.85;100.00
51229;BME280;37304;52.216;6.874;2023-02-23T09:24:26;101207.16;;;7.04;100.00
51229;BME280;37304;52.216;6.874;2023-02-23T09:29:26;101219.22;;;7.03;100.00
51229;BME280;37304;52.216;6.874;2023-02-23T09:34:27;101211.41;;;6.94;100.00
51229;BME280;37304;52.216;6.874;2023-02-23T09:39:29;101219.19;;;6.97;100.00
51229;BME280;37304;52.216;6.874;2023-02-23T09:49:49;101225.28;;;7.07;100.00
51229;BME280;37304;52.216;6.874;2023-02-23T09:54:50;101221.81;;;7.08;100.00
51229;BME280;37304;52.216;6.874;2023-02-23T09:59:51;101214.88;;;6.93;100.00
51229;BME280;37304;52.216;6.874;2023-02-23T10:05:06;101217.50;;;7.01;100.00
51229;BME280;37304;52.216;6.874;2023-02-23T10:10:21;101216.59;;;6.94;100.00
51229;BME280;37304;52.216;6.874;2023-02-23T10:15:34;101218.38;;;7.03;100.00
51229;BME280;37304;52.216;6.874;2023-02-23T10:21:11;101220.09;;;7.10;100.00
51229;BME280;37304;52.216;6.874;2023-02-23T10:26:20;101214.97;;;7.24;100.00
51229;BME280;37304;52.216;6.874;2023-02-23T10:31:36;101218.47;;;7.49;100.00
51229;BME280;37304;52.216;6.874;2023-02-23T10:36:56;101211.59;;;7.51;100.00
51229;BME280;37304;52.216;6.874;2023-02-23T10:42:00;101212.50;;;7.66;100.00
51229;BME280;37304;52.216;6.874;2023-02-23T10:47:07;101207.28;;;7.50;100.00
51229;BME280;37304;52.216;6.874;2023-02-23T10:52:11;101204.69;;;7.41;100.00
51229;BME280;37304;52.216;6.874;2023-02-23T11:02:24;101217.63;;;7.47;100.00
51229;BME280;37304;52.216;6.874;2023-02-23T11:07:28;101219.34;;;7.42;100.00
51229;BME280;37304;52.216;6.874;2023-02-23T11:12:37;101222.81;;;7.50;100.00
51229;BME280;37304;52.216;6.874;2023-02-23T11:17:41;101225.38;;;7.46;100.00
51229;BME280;37304;52.216;6.874;2023-02-23T11:22:42;101215.03;;;7.47;100.00
51229;BME280;37304;52.216;6.874;2023-02-23T11:27:47;101223.66;;;7.43;100.00
51229;BME280;37304;52.216;6.874;2023-02-23T11:32:52;101210.72;;;7.38;100.00
51229;BME280;37304;52.216;6.874;2023-02-23T11:37:54;101216.72;;;7.29;100.00
51229;BME280;37304;52.216;6.874;2023-02-23T11:43:07;101217.59;;;7.33;100.00
51229;BME280;37304;52.216;6.874;2023-02-23T11:48:20;101212.44;;;7.39;100.00
51229;BME280;37304;52.216;6.874;2023-02-23T11:53:30;101211.59;;;7.48;100.00
51229;BME280;37304;52.216;6.874;2023-02-23T11:58:42;101224.53;;;7.40;100.00
51229;BME280;37304;52.216;6.874;2023-02-23T12:03:47;101221.00;;;7.21;100.00
51229;BME280;37304;52.216;6.874;2023-02-23T12:08:51;101229.63;;;7.26;100.00
51229;BME280;37304;52.216;6.874;2023-02-23T12:14:02;101222.72;;;7.27;100.00
51229;BME280;37304;52.216;6.874;2023-02-23T12:24:44;101214.09;;;7.19;100.00
51229;BME280;37304;52.216;6.874;2023-02-23T12:35:45;101217.56;;;7.19;100.00
51229;BME280;37304;52.216;6.874;2023-02-23T12:40:48;101224.47;;;7.33;100.00
51229;BME280;37304;52.216;6.874;2023-02-23T12:45:55;101222.78;;;7.30;100.00
51229;BME280;37304;52.216;6.874;2023-02-23T12:51:00;101220.19;;;7.32;100.00
51229;BME280;37304;52.216;6.874;2023-02-23T12:56:05;101220.13;;;7.24;100.00
51229;BME280;37304;52.216;6.874;2023-02-23T13:01:26;101230.50;;;7.32;100.00
51229;BME280;37304;52.216;6.874;2023-02-23T13:06:49;101228.78;;;7.34;100.00
51229;BME280;37304;52.216;6.874;2023-02-23T13:23:02;101230.53;;;7.41;100.00
51229;BME280;37304;52.216;6.874;2023-02-23T13:28:17;101228.78;;;7.31;100.00
51229;BME280;37304;52.216;6.874;2023-02-23T13:33:25;101233.09;;;7.35;100.00
51229;BME280;37304;52.216;6.874;2023-02-23T13:39:30;101229.63;;;7.26;100.00
51229;BME280;37304;52.216;6.874;2023-02-23T13:54:32;101220.97;;;7.17;100.00
51229;BME280;37304;52.216;6.874;2023-02-23T13:59:40;101226.16;;;7.17;100.00
51229;BME280;37304;52.216;6.874;2023-02-23T14:04:41;101237.34;;;7.08;100.00
51229;BME280;37304;52.216;6.874;2023-02-23T14:09:52;101239.06;;;7.06;100.00
51229;BME280;37304;52.216;6.874;2023-02-23T14:14:53;101241.66;;;7.12;100.00
51229;BME280;37304;52.216;6.874;2023-02-23T14:41:22;101245.13;;;7.28;100.00
51229;BME280;37304;52.216;6.874;2023-02-23T14:46:25;101235.69;;;7.30;100.00
51229;BME280;37304;52.216;6.874;2023-02-23T14:51:44;101228.81;;;7.40;100.00
51229;BME280;37304;52.216;6.874;2023-02-23T14:56:49;101225.41;;;7.55;100.00
51229;BME280;37304;52.216;6.874;2023-02-23T15:01:50;101224.53;;;7.57;100.00
51229;BME280;37304;52.216;6.874;2023-02-23T15:06:57;101215.91;;;7.46;100.00
51229;BME280;37304;52.216;6.874;2023-02-23T15:12:05;101199.53;;;7.56;100.00
51229;BME280;37304;52.216;6.874;2023-02-23T15:17:20;101203.84;;;7.51;100.00
51229;BME280;37304;52.216;6.874;2023-02-23T15:22:28;101202.97;;;7.46;100.00
51229;BME280;37304;52.216;6.874;2023-02-23T15:27:36;101203.00;;;7.51;100.00
51229;BME280;37304;52.216;6.874;2023-02-23T15:32:41;101204.69;;;7.56;100.00
51229;BME280;37304;52.216;6.874;2023-02-23T15:37:43;101204.69;;;7.44;100.00
51229;BME280;37304;52.216;6.874;2023-02-23T15:42:56;101215.06;;;7.55;100.00
51229;BME280;37304;52.216;6.874;2023-02-23T15:48:06;101217.63;;;7.47;100.00
51229;BME280;37304;52.216;6.874;2023-02-23T15:53:20;101227.94;;;7.35;100.00
51229;BME280;37304;52.216;6.874;2023-02-23T15:58:25;101214.13;;;7.29;100.00
51229;BME280;37304;52.216;6.874;2023-02-23T16:03:32;101206.38;;;7.33;100.00
51229;BME280;37304;52.216;6.874;2023-02-23T16:08:33;101221.88;;;7.26;100.00
51229;BME280;37304;52.216;6.874;2023-02-23T16:13:34;101225.31;;;7.22;100.00
51229;BME280;37304;52.216;6.874;2023-02-23T16:18:38;101227.88;;;7.21;100.00
51229;BME280;37304;52.216;6.874;2023-02-23T16:23:42;101226.16;;;7.23;100.00
51229;BME280;37304;52.216;6.874;2023-02-23T16:28:45;101230.50;;;7.22;100.00
51229;BME280;37304;52.216;6.874;2023-02-23T16:33:54;101227.94;;;7.28;100.00
51229;BME280;37304;52.216;6.874;2023-02-23T16:38:58;101227.06;;;7.26;100.00
51229;BME280;37304;52.216;6.874;2023-02-23T16:44:00;101226.16;;;7.18;100.00
51229;BME280;37304;52.216;6.874;2023-02-23T16:49:01;101220.09;;;7.10;100.00
51229;BME280;37304;52.216;6.874;2023-02-23T16:54:09;101235.59;;;7.08;100.00
51229;BME280;37304;52.216;6.874;2023-02-23T16:59:13;101244.22;;;7.13;100.00
51229;BME280;37304;52.216;6.874;2023-02-23T17:04:16;101233.03;;;7.11;100.00
51229;BME280;37304;52.216;6.874;2023-02-23T17:09:17;101238.19;;;7.11;100.00
51229;BME280;37304;52.216;6.874;2023-02-23T17:14:24;101261.41;;;6.97;100.00
51229;BME280;37304;52.216;6.874;2023-02-23T17:19:26;101279.25;;;6.57;100.00
51229;BME280;37304;52.216;6.874;2023-02-23T17:24:26;101308.41;;;6.44;100.00
51229;BME280;37304;52.216;6.874;2023-02-23T17:29:27;101311.31;;;5.90;100.00
51229;BME280;37304;52.216;6.874;2023-02-23T17:34:28;101309.50;;;5.79;100.00
51229;BME280;37304;52.216;6.874;2023-02-23T17:39:28;101315.47;;;5.75;100.00
51229;BME280;37304;52.216;6.874;2023-02-23T17:44:29;101328.22;;;5.63;100.00
51229;BME280;37304;52.216;6.874;2023-02-23T17:49:30;101329.00;;;5.56;100.00
51229;BME280;37304;52.216;6.874;2023-02-23T17:54:30;101335.69;;;5.41;100.00
51229;BME280;37304;52.216;6.874;2023-02-23T17:59:30;101336.53;;;5.38;100.00
51229;BME280;37304;52.216;6.874;2023-02-23T18:04:31;101333.97;;;5.38;100.00
51229;BME280;37304;52.216;6.874;2023-02-23T18:09:31;101340.72;;;5.32;100.00
51229;BME280;37304;52.216;6.874;2023-02-23T18:14:32;101346.66;;;5.26;100.00
51229;BME280;37304;52.216;6.874;2023-02-23T18:19:36;101349.16;;;5.20;100.00
51229;BME280;37304;52.216;6.874;2023-02-23T18:24:37;101352.56;;;5.17;100.00
51229;BME280;37304;52.216;6.874;2023-02-23T18:29:38;101354.22;;;5.14;100.00
51229;BME280;37304;52.216;6.874;2023-02-23T18:34:38;101352.41;;;5.05;100.00
51229;BME280;37304;52.216;6.874;2023-02-23T18:39:39;101359.09;;;4.93;100.00
51229;BME280;37304;52.216;6.874;2023-02-23T18:44:39;101362.50;;;4.91;100.00
51229;BME280;37304;52.216;6.874;2023-02-23T18:49:39;101363.28;;;4.88;100.00
51229;BME280;37304;52.216;6.874;2023-02-23T18:54:40;101369.28;;;4.86;100.00
51229;BME280;37304;52.216;6.874;2023-02-23T18:59:40;101370.97;;;4.85;100.00
51229;BME280;37304;52.216;6.874;2023-02-23T19:04:40;101386.44;;;4.85;100.00
51229;BME280;37304;52.216;6.874;2023-02-23T19:09:42;101392.31;;;4.76;100.00
51229;BME280;37304;52.216;6.874;2023-02-23T19:14:43;101396.53;;;4.73;100.00
51229;BME280;37304;52.216;6.874;2023-02-23T19:19:43;101393.91;;;4.68;100.00
51229;BME280;37304;52.216;6.874;2023-02-23T19:24:44;101389.59;;;4.69;100.00
51229;BME280;37304;52.216;6.874;2023-02-23T19:29:44;101390.44;;;4.68;100.00
51229;BME280;37304;52.216;6.874;2023-02-23T19:34:45;101382.72;;;4.68;100.00
51229;BME280;37304;52.216;6.874;2023-02-23T19:39:45;101382.81;;;4.74;100.00
51229;BME280;37304;52.216;6.874;2023-02-23T19:44:46;101378.50;;;4.73;100.00
51229;BME280;37304;52.216;6.874;2023-02-23T19:49:46;101362.22;;;4.74;100.00
51229;BME280;37304;52.216;6.874;2023-02-23T19:54:47;101362.03;;;4.61;100.00
51229;BME280;37304;52.216;6.874;2023-02-23T19:59:48;101362.56;;;4.42;100.00
51229;BME280;37304;52.216;6.874;2023-02-23T20:04:49;101372.66;;;4.31;100.00
51229;BME280;37304;52.216;6.874;2023-02-23T20:09:49;101374.94;;;4.14;100.00
51229;BME280;37304;52.216;6.874;2023-02-23T20:14:50;101373.09;;;4.06;100.00
51229;BME280;37304;52.216;6.874;2023-02-23T20:19:54;101379.91;;;4.04;100.00
51229;BME280;37304;52.216;6.874;2023-02-23T20:24:54;101375.47;;;3.97;100.00
51229;BME280;37304;52.216;6.874;2023-02-23T20:29:56;101384.69;;;3.86;100.00
51229;BME280;37304;52.216;6.874;2023-02-23T20:34:57;101380.22;;;3.77;100.00
51229;BME280;37304;52.216;6.874;2023-02-23T20:40:04;101378.53;;;3.77;100.00
51229;BME280;37304;52.216;6.874;2023-02-23T20:45:20;101375.97;;;3.79;100.00
51229;BME280;37304;52.216;6.874;2023-02-23T20:50:25;101373.59;;;3.88;100.00
51229;BME280;37304;52.216;6.874;2023-02-23T20:55:32;101362.56;;;3.94;100.00
51229;BME280;37304;52.216;6.874;2023-02-23T21:00:32;101365.19;;;3.97;100.00
51229;BME280;37304;52.216;6.874;2023-02-23T21:05:38;101359.22;;;3.98;100.00
51229;BME280;37304;52.216;6.874;2023-02-23T21:10:40;101368.66;;;3.98;100.00
51229;BME280;37304;52.216;6.874;2023-02-23T21:15:42;101360.09;;;3.99;100.00
51229;BME280;37304;52.216;6.874;2023-02-23T21:20:42;101355.50;;;3.84;100.00
51229;BME280;37304;52.216;6.874;2023-02-23T21:25:43;101336.34;;;3.68;100.00
51229;BME280;37304;52.216;6.874;2023-02-23T21:30:43;101334.38;;;3.56;100.00
51229;BME280;37304;52.216;6.874;2023-02-23T21:35:43;101330.72;;;3.44;100.00
51229;BME280;37304;52.216;6.874;2023-02-23T21:40:44;101329.66;;;3.33;100.00
51229;BME280;37304;52.216;6.874;2023-02-23T21:45:44;101324.41;;;3.28;100.00
51229;BME280;37304;52.216;6.874;2023-02-23T21:50:45;101319.19;;;3.25;100.00
51229;BME280;37304;52.216;6.874;2023-02-23T21:55:46;101313.94;;;3.19;100.00
51229;BME280;37304;52.216;6.874;2023-02-23T22:00:47;101307.63;;;3.04;100.00
51229;BME280;37304;52.216;6.874;2023-02-23T22:05:47;101316.09;;;2.99;100.00
51229;BME280;37304;52.216;6.874;2023-02-23T22:10:47;101319.13;;;2.82;100.00
51229;BME280;37304;52.216;6.874;2023-02-23T22:15:48;101319.88;;;2.78;100.00
51229;BME280;37304;52.216;6.874;2023-02-23T22:20:55;101323.06;;;2.68;100.00
51229;BME280;37304;52.216;6.874;2023-02-23T22:25:58;101318.50;;;2.56;100.00
51229;BME280;37304;52.216;6.874;2023-02-23T22:31:02;101329.53;;;2.52;100.00
51229;BME280;37304;52.216;6.874;2023-02-23T22:36:08;101323.34;;;2.43;100.00
51229;BME280;37304;52.216;6.874;2023-02-23T22:41:12;101317.13;;;2.33;100.00
51229;BME280;37304;52.216;6.874;2023-02-23T22:46:14;101320.25;;;2.22;100.00
51229;BME280;37304;52.216;6.874;2023-02-23T22:51:16;101314.13;;;2.16;100.00
51229;BME280;37304;52.216;6.874;2023-02-23T22:56:18;101312.63;;;1.91;100.00
51229;BME280;37304;52.216;6.874;2023-02-23T23:01:18;101300.63;;;1.90;100.00
51229;BME280;37304;52.216;6.874;2023-02-23T23:06:19;101302.78;;;1.74;100.00
51229;BME280;37304;52.216;6.874;2023-02-23T23:11:24;101300.91;;;1.67;100.00
51229;BME280;37304;52.216;6.874;2023-02-23T23:16:27;101295.56;;;1.61;100.00
51229;BME280;37304;52.216;6.874;2023-02-23T23:21:32;101289.25;;;1.48;100.00
51229;BME280;37304;52.216;6.874;2023-02-23T23:26:35;101273.66;;;1.39;100.00
51229;BME280;37304;52.216;6.874;2023-02-23T23:31:37;101275.00;;;1.27;100.00
51229;BME280;37304;52.216;6.874;2023-02-23T23:36:41;101274.81;;;1.20;100.00
51229;BME280;37304;52.216;6.874;2023-02-23T23:41:53;101271.91;;;1.07;100.00
51229;BME280;37304;52.216;6.874;2023-02-23T23:46:53;101265.06;;;1.08;100.00
51229;BME280;37304;52.216;6.874;2023-02-23T23:51:54;101266.38;;;0.95;100.00
51229;BME280;37304;52.216;6.874;2023-02-23T23:56:56;101260.53;;;0.99;100.00
